createdAt,value
2023-04-27T00:04:26.382Z,5.80
2023-04-27T00:09:30.266Z,5.82
2023-04-27T00:14:33.526Z,4.93
2023-04-27T00:19:39.750Z,4.78
2023-04-27T00:24:43.397Z,4.78
2023-04-27T00:29:46.618Z,5.75
2023-04-27T00:34:51.581Z,5.10
2023-04-27T00:39:55.148Z,6.07
2023-04-27T00:44:59.243Z,4.97
2023-04-27T00:50:04.549Z,5.28
2023-04-27T00:55:09.889Z,5.13
2023-04-27T01:00:14.023Z,5.15
2023-04-27T01:05:18.612Z,5.28
2023-04-27T01:10:23.107Z,4.97
2023-04-27T01:15:27.145Z,5.30
2023-04-27T01:20:32.304Z,5.57
2023-04-27T01:25:37.246Z,4.88
2023-04-27T01:30:41.062Z,5.13
2023-04-27T01:35:45.096Z,4.82
2023-04-27T01:40:50.002Z,5.15
2023-04-27T01:45:53.572Z,6.00
2023-04-27T01:50:58.366Z,5.13
2023-04-27T01:56:04.034Z,4.97
2023-04-27T02:01:09.831Z,5.10
2023-04-27T02:06:13.446Z,5.07
2023-04-27T02:11:18.503Z,4.43
2023-04-27T02:16:22.205Z,5.45
2023-04-27T02:21:25.815Z,4.60
2023-04-27T02:26:30.956Z,5.22
2023-04-27T02:31:35.087Z,5.93
2023-04-27T02:36:38.694Z,5.47
2023-04-27T02:41:43.692Z,6.03
2023-04-27T02:46:47.277Z,6.13
2023-04-27T02:51:50.829Z,4.43
2023-04-27T02:56:55.890Z,5.65
2023-04-27T03:01:59.169Z,4.63
2023-04-27T03:07:02.890Z,4.90
2023-04-27T03:12:08.797Z,5.35
2023-04-27T03:17:12.054Z,5.20
2023-04-27T03:22:16.745Z,5.30
2023-04-27T03:27:21.734Z,5.45
2023-04-27T03:32:27.378Z,5.47
2023-04-27T03:37:31.047Z,5.40
2023-04-27T03:42:36.098Z,5.65
2023-04-27T03:47:40.341Z,4.45
2023-04-27T03:52:44.048Z,4.63
2023-04-27T03:57:49.189Z,4.80
2023-04-27T04:02:53.683Z,5.20
2023-04-27T04:07:57.428Z,5.50
2023-04-27T04:13:03.674Z,6.07
2023-04-27T04:18:07.380Z,5.20
2023-04-27T04:23:11.115Z,6.40
2023-04-27T04:28:16.002Z,5.65
2023-04-27T04:33:20.505Z,6.03
2023-04-27T04:38:24.897Z,5.20
2023-04-27T04:43:30.377Z,5.43
2023-04-27T04:48:34.084Z,5.22
2023-04-27T04:53:38.004Z,5.32
2023-04-27T04:58:42.608Z,5.72
2023-04-27T05:03:47.319Z,6.47
2023-04-27T05:08:50.744Z,5.40
2023-04-27T05:13:55.682Z,6.07
2023-04-27T05:18:59.387Z,5.07
2023-04-27T05:24:04.300Z,5.43
2023-04-27T05:29:09.382Z,4.77
2023-04-27T05:34:13.798Z,4.95
2023-04-27T05:39:17.561Z,7.40
2023-04-27T05:44:22.627Z,6.03
2023-04-27T05:49:25.991Z,5.55
2023-04-27T05:54:29.675Z,5.88
2023-04-27T05:59:34.679Z,6.18
2023-04-27T06:04:38.954Z,6.17
2023-04-27T06:09:43.149Z,4.75
2023-04-27T06:14:48.146Z,7.18
2023-04-27T06:19:52.052Z,5.97
2023-04-27T06:24:55.694Z,5.70
2023-04-27T06:30:00.840Z,5.57
2023-04-27T06:35:04.443Z,6.40
2023-04-27T06:40:10.035Z,5.72
2023-04-27T06:50:19.269Z,7.13
2023-04-27T06:55:22.675Z,6.35
2023-04-27T07:00:28.529Z,5.93
2023-04-27T07:05:32.110Z,5.72
2023-04-27T07:10:36.057Z,5.47
2023-04-27T07:15:41.057Z,4.97
2023-04-27T07:20:44.669Z,4.45
2023-04-27T07:25:48.378Z,4.13
2023-04-27T07:30:53.580Z,4.15
2023-04-27T07:35:57.300Z,4.03
2023-04-27T07:41:04.834Z,3.80
2023-04-27T07:46:10.087Z,4.25
2023-04-27T07:51:16.366Z,4.55
2023-04-27T07:56:19.896Z,5.00
2023-04-27T08:01:25.050Z,4.22
2023-04-27T08:06:30.087Z,4.63
2023-04-27T08:11:34.078Z,4.57
2023-04-27T08:16:39.252Z,6.53
2023-04-27T08:21:42.947Z,5.22
2023-04-27T08:26:46.518Z,6.00
2023-04-27T08:31:51.904Z,5.70
2023-04-27T08:36:56.653Z,6.18
2023-04-27T08:42:00.262Z,5.50
2023-04-27T08:47:07.172Z,10.40
2023-04-27T08:52:15.059Z,5.68
2023-04-27T08:57:18.898Z,4.88
2023-04-27T09:02:23.515Z,5.45
2023-04-27T09:07:28.787Z,4.83
2023-04-27T09:12:32.152Z,5.60
2023-04-27T09:17:38.860Z,5.30
2023-04-27T09:22:45.715Z,5.07
2023-04-27T09:27:48.959Z,4.70
2023-04-27T09:32:56.114Z,5.40
2023-04-27T09:38:00.226Z,7.18
2023-04-27T09:43:03.930Z,7.05
2023-04-27T09:48:09.773Z,5.18
2023-04-27T09:53:15.747Z,5.53
2023-04-27T09:59:06.948Z,5.13
2023-04-27T10:04:50.946Z,6.60
2023-04-27T10:09:54.757Z,5.80
2023-04-27T10:15:00.110Z,6.03
2023-04-27T10:20:09.546Z,5.75
2023-04-27T10:25:19.182Z,5.53
2023-04-27T10:30:23.669Z,5.97
2023-04-27T10:35:37.128Z,6.13
2023-04-27T10:40:40.639Z,5.82
2023-04-27T10:45:44.749Z,6.72
2023-04-27T10:50:51.770Z,5.78
2023-04-27T10:55:57.093Z,5.60
2023-04-27T11:01:00.405Z,5.68
2023-04-27T11:06:06.932Z,5.53
2023-04-27T11:11:16.887Z,5.00
2023-04-27T11:16:20.515Z,6.03
2023-04-27T11:21:28.551Z,6.22
2023-04-27T11:26:32.139Z,5.32
2023-04-27T11:31:43.796Z,5.20
2023-04-27T11:37:07.229Z,5.30
2023-04-27T11:42:22.040Z,4.93
2023-04-27T11:47:27.807Z,5.28
2023-04-27T11:52:33.695Z,5.40
2023-04-27T11:57:37.983Z,5.50
2023-04-27T12:02:42.474Z,5.75
2023-04-27T12:07:47.384Z,5.60
2023-04-27T12:12:50.631Z,4.77
2023-04-27T12:17:53.824Z,5.10
2023-04-27T12:22:58.871Z,4.75
2023-04-27T12:33:10.891Z,4.72
2023-04-27T12:38:15.944Z,5.15
2023-04-27T12:43:19.451Z,4.37
2023-04-27T12:48:23.582Z,4.40
2023-04-27T12:53:29.580Z,4.72
2023-04-27T12:58:32.925Z,5.30
2023-04-27T13:03:36.321Z,5.05
2023-04-27T13:08:42.168Z,5.20
2023-04-27T13:13:45.791Z,4.88
2023-04-27T13:18:50.580Z,4.82
2023-04-27T13:23:55.101Z,5.77
2023-04-27T13:28:59.029Z,4.47
2023-04-27T13:34:04.303Z,5.10
2023-04-27T13:39:08.905Z,3.90
2023-04-27T13:44:12.395Z,4.40
2023-04-27T13:49:16.041Z,4.70
2023-04-27T13:54:21.848Z,4.60
2023-04-27T13:59:26.643Z,4.22
2023-04-27T14:04:30.311Z,5.17
2023-04-27T14:09:35.402Z,4.50
2023-04-27T14:14:39.036Z,5.07
2023-04-27T14:19:43.371Z,4.30
2023-04-27T14:24:48.311Z,4.20
2023-04-27T14:29:51.897Z,4.55
2023-04-27T14:34:55.452Z,5.07
2023-04-27T14:40:00.577Z,4.20
2023-04-27T14:45:04.149Z,4.60
2023-04-27T14:50:08.600Z,4.15
2023-04-27T14:55:15.617Z,5.38
2023-04-27T15:00:19.708Z,4.57
2023-04-27T15:05:23.432Z,4.40
2023-04-27T15:10:28.506Z,4.32
2023-04-27T15:15:32.146Z,3.72
2023-04-27T15:20:35.833Z,4.10
2023-04-27T15:25:40.497Z,3.50
2023-04-27T15:30:44.787Z,4.07
2023-04-27T15:35:48.126Z,3.72
2023-04-27T15:40:53.052Z,4.03
2023-04-27T15:45:56.809Z,4.80
2023-04-27T15:51:00.431Z,4.40
2023-04-27T15:56:05.525Z,4.25
2023-04-27T16:01:09.175Z,4.30
2023-04-27T16:06:12.852Z,4.07
2023-04-27T16:11:17.802Z,5.63
2023-04-27T16:16:21.498Z,4.07
2023-04-27T16:21:25.376Z,4.50
2023-04-27T16:26:30.303Z,4.60
2023-04-27T16:31:34.087Z,4.65
2023-04-27T16:36:38.235Z,3.58
2023-04-27T16:41:42.893Z,3.97
2023-04-27T16:46:47.949Z,3.33
2023-04-27T16:51:53.023Z,4.80
2023-04-27T16:56:58.056Z,4.40
2023-04-27T17:02:16.398Z,3.78
2023-04-27T17:07:25.951Z,4.45
2023-04-27T17:12:30.903Z,3.60
2023-04-27T17:17:35.719Z,4.30
2023-04-27T17:22:39.643Z,4.10
2023-04-27T17:27:44.747Z,4.18
2023-04-27T17:32:48.379Z,4.50
2023-04-27T17:37:53.387Z,3.92
2023-04-27T17:42:58.332Z,4.40
2023-04-27T17:48:02.101Z,3.60
2023-04-27T17:53:06.467Z,3.47
2023-04-27T17:58:11.650Z,5.03
2023-04-27T18:03:15.594Z,3.70
2023-04-27T18:08:19.652Z,4.70
2023-04-27T18:13:24.775Z,5.55
2023-04-27T18:18:29.182Z,4.07
2023-04-27T18:23:35.087Z,4.07
2023-04-27T18:28:42.111Z,3.88
2023-04-27T18:33:46.250Z,3.75
2023-04-27T18:38:50.018Z,3.78
2023-04-27T18:43:55.266Z,4.15
2023-04-27T18:48:58.894Z,4.25
2023-04-27T18:54:02.539Z,3.45
2023-04-27T18:59:07.787Z,4.10
2023-04-27T19:04:11.965Z,4.00
2023-04-27T19:09:15.977Z,4.88
2023-04-27T19:14:21.283Z,4.90
2023-04-27T19:19:25.357Z,3.80
2023-04-27T19:24:29.029Z,3.95
2023-04-27T19:29:49.159Z,4.53
2023-04-27T19:34:52.720Z,4.18
2023-04-27T19:39:56.485Z,4.18
2023-04-27T19:45:01.502Z,4.80
2023-04-27T19:50:05.506Z,4.05
2023-04-27T19:55:09.829Z,4.65
2023-04-27T20:00:16.123Z,3.92
2023-04-27T20:05:20.075Z,3.72
2023-04-27T20:10:24.197Z,3.30
2023-04-27T20:15:29.296Z,3.13
2023-04-27T20:20:33.048Z,3.30
2023-04-27T20:25:36.705Z,3.33
2023-04-27T20:30:41.874Z,3.67
2023-04-27T20:35:47.061Z,3.28
2023-04-27T20:40:52.965Z,3.70
2023-04-27T20:45:58.372Z,4.13
2023-04-27T20:51:02.224Z,3.90
2023-04-27T20:56:06.180Z,3.85
2023-04-27T21:01:11.258Z,3.42
2023-04-27T21:06:16.913Z,3.67
2023-04-27T21:16:25.068Z,3.90
2023-04-27T21:21:28.806Z,4.40
2023-04-27T21:26:32.647Z,3.25
2023-04-27T21:31:37.923Z,3.67
2023-04-27T21:36:41.638Z,3.40
2023-04-27T21:41:45.287Z,3.85
2023-04-27T21:46:50.484Z,3.92
2023-04-27T21:51:54.141Z,3.38
2023-04-27T21:56:57.765Z,3.13
2023-04-27T22:02:06.918Z,3.97
2023-04-27T22:07:10.867Z,3.70
2023-04-27T22:12:14.367Z,4.05
2023-04-27T22:17:19.352Z,3.35
2023-04-27T22:22:23.076Z,3.80
2023-04-27T22:27:35.286Z,3.63
2023-04-27T22:32:47.293Z,3.72
2023-04-27T22:37:50.960Z,3.97
2023-04-27T22:42:55.410Z,3.30
2023-04-27T22:48:00.427Z,3.78
2023-04-27T22:53:04.291Z,3.83
2023-04-27T22:58:07.871Z,3.72
2023-04-27T23:03:13.196Z,3.42
2023-04-27T23:08:18.986Z,3.90
2023-04-27T23:13:22.677Z,4.20
2023-04-27T23:18:27.825Z,4.18
2023-04-27T23:23:31.451Z,4.25
2023-04-27T23:28:35.053Z,5.07
2023-04-27T23:33:40.152Z,4.68
2023-04-27T23:38:43.632Z,4.25
2023-04-27T23:43:47.712Z,4.25
2023-04-27T23:48:52.696Z,4.63
2023-04-27T23:53:56.449Z,4.47
2023-04-27T23:58:59.958Z,4.30
